sensor_id;sensor_type;location;lat;lon;timestamp;pressure;altitude;pressure_sealevel;temperature;humidity
69624;BME280;56843;52.020;5.670;2022-10-22T00:00:15;100709.28;;;10.02;98.36
69624;BME280;56843;52.020;5.670;2022-10-22T00:01:46;100709.84;;;10.08;98.65
69624;BME280;56843;52.020;5.670;2022-10-22T00:03:17;100710.94;;;10.15;98.79
69624;BME280;56843;52.020;5.670;2022-10-22T00:04:49;100714.69;;;10.23;98.74
69624;BME280;56843;52.020;5.670;2022-10-22T00:06:20;100706.94;;;10.30;98.74
69624;BME280;56843;52.020;5.670;2022-10-22T00:07:51;100711.00;;;10.36;98.98
69624;BME280;56843;52.020;5.670;2022-10-22T00:09:21;100718.69;;;10.38;98.80
69624;BME280;56843;52.020;5.670;2022-10-22T00:10:52;100716.81;;;10.38;98.65
69624;BME280;56843;52.020;5.670;2022-10-22T00:12:23;100714.47;;;10.37;98.36
69624;BME280;56843;52.020;5.670;2022-10-22T00:13:54;100715.88;;;10.34;98.32
69624;BME280;56843;52.020;5.670;2022-10-22T00:15:24;100711.97;;;10.31;98.38
69624;BME280;56843;52.020;5.670;2022-10-22T00:16:55;100720.31;;;10.30;98.09
69624;BME280;56843;52.020;5.670;2022-10-22T00:18:25;100720.19;;;10.26;98.32
69624;BME280;56843;52.020;5.670;2022-10-22T00:19:56;100719.72;;;10.24;98.33
69624;BME280;56843;52.020;5.670;2022-10-22T00:21:27;100727.72;;;10.24;98.06
69624;BME280;56843;52.020;5.670;2022-10-22T00:22:58;100726.59;;;10.25;98.39
69624;BME280;56843;52.020;5.670;2022-10-22T00:24:28;100734.78;;;10.29;98.06
69624;BME280;56843;52.020;5.670;2022-10-22T00:25:59;100731.91;;;10.34;98.57
69624;BME280;56843;52.020;5.670;2022-10-22T00:27:29;100730.00;;;10.34;98.52
69624;BME280;56843;52.020;5.670;2022-10-22T00:29:01;100730.47;;;10.37;98.55
69624;BME280;56843;52.020;5.670;2022-10-22T00:30:31;100728.25;;;10.39;98.49
69624;BME280;56843;52.020;5.670;2022-10-22T00:32:03;100730.28;;;10.42;98.64
69624;BME280;56843;52.020;5.670;2022-10-22T00:33:33;100740.00;;;10.46;98.46
69624;BME280;56843;52.020;5.670;2022-10-22T00:35:04;100738.72;;;10.52;98.55
69624;BME280;56843;52.020;5.670;2022-10-22T00:36:34;100743.53;;;10.59;98.59
69624;BME280;56843;52.020;5.670;2022-10-22T00:38:05;100734.72;;;10.67;98.41
69624;BME280;56843;52.020;5.670;2022-10-22T00:39:35;100737.63;;;10.74;98.46
69624;BME280;56843;52.020;5.670;2022-10-22T00:41:07;100746.69;;;10.81;98.29
69624;BME280;56843;52.020;5.670;2022-10-22T00:42:37;100740.06;;;10.87;98.23
69624;BME280;56843;52.020;5.670;2022-10-22T00:46:17;100729.00;;;10.97;97.95
69624;BME280;56843;52.020;5.670;2022-10-22T00:49:39;100733.13;;;11.07;97.63
69624;BME280;56843;52.020;5.670;2022-10-22T00:51:10;100721.34;;;11.08;97.88
69624;BME280;56843;52.020;5.670;2022-10-22T00:52:40;100729.03;;;11.09;97.85
69624;BME280;56843;52.020;5.670;2022-10-22T00:54:11;100730.16;;;11.08;97.58
69624;BME280;56843;52.020;5.670;2022-10-22T00:55:45;100730.81;;;11.05;97.66
69624;BME280;56843;52.020;5.670;2022-10-22T00:57:18;100731.91;;;11.04;97.59
69624;BME280;56843;52.020;5.670;2022-10-22T00:58:54;100735.69;;;11.03;97.68
69624;BME280;56843;52.020;5.670;2022-10-22T01:02:19;100743.72;;;11.03;97.74
69624;BME280;56843;52.020;5.670;2022-10-22T01:03:50;100732.38;;;11.06;97.87
69624;BME280;56843;52.020;5.670;2022-10-22T01:05:21;100736.59;;;11.07;98.07
69624;BME280;56843;52.020;5.670;2022-10-22T01:06:52;100740.41;;;11.06;98.12
69624;BME280;56843;52.020;5.670;2022-10-22T01:10:33;100734.56;;;11.04;97.82
69624;BME280;56843;52.020;5.670;2022-10-22T01:13:53;100729.56;;;11.03;97.89
69624;BME280;56843;52.020;5.670;2022-10-22T01:17:07;100727.78;;;11.07;98.36
69624;BME280;56843;52.020;5.670;2022-10-22T01:19:22;100727.78;;;11.07;98.21
69624;BME280;56843;52.020;5.670;2022-10-22T01:21:08;100723.88;;;11.04;98.05
69624;BME280;56843;52.020;5.670;2022-10-22T01:22:42;100733.03;;;11.03;98.27
69624;BME280;56843;52.020;5.670;2022-10-22T01:24:30;100729.56;;;11.03;98.36
69624;BME280;56843;52.020;5.670;2022-10-22T01:30:11;100727.88;;;10.98;98.16
69624;BME280;56843;52.020;5.670;2022-10-22T01:31:51;100733.88;;;10.95;98.20
69624;BME280;56843;52.020;5.670;2022-10-22T01:33:24;100734.06;;;10.90;98.14
69624;BME280;56843;52.020;5.670;2022-10-22T01:35:04;100738.97;;;10.88;98.29
69624;BME280;56843;52.020;5.670;2022-10-22T01:36:36;100739.25;;;10.87;97.97
69624;BME280;56843;52.020;5.670;2022-10-22T01:38:12;100740.06;;;10.87;98.51
69624;BME280;56843;52.020;5.670;2022-10-22T01:39:45;100729.69;;;10.86;98.57
69624;BME280;56843;52.020;5.670;2022-10-22T01:41:17;100728.44;;;10.83;98.57
69624;BME280;56843;52.020;5.670;2022-10-22T01:43:02;100730.03;;;10.84;98.78
69624;BME280;56843;52.020;5.670;2022-10-22T01:44:34;100723.91;;;10.84;98.54
69624;BME280;56843;52.020;5.670;2022-10-22T01:46:06;100725.00;;;10.83;98.66
69624;BME280;56843;52.020;5.670;2022-10-22T01:49:26;100725.50;;;10.76;98.58
69624;BME280;56843;52.020;5.670;2022-10-22T01:53:59;100718.69;;;10.67;98.30
69624;BME280;56843;52.020;5.670;2022-10-22T02:00:08;100719.50;;;10.59;98.63
69624;BME280;56843;52.020;5.670;2022-10-22T02:01:57;100720.94;;;10.56;98.84
69624;BME280;56843;52.020;5.670;2022-10-22T02:03:58;100727.69;;;10.54;98.52
69624;BME280;56843;52.020;5.670;2022-10-22T02:05:32;100717.00;;;10.54;98.53
69624;BME280;56843;52.020;5.670;2022-10-22T02:07:07;100719.22;;;10.52;99.05
69624;BME280;56843;52.020;5.670;2022-10-22T02:08:41;100718.13;;;10.53;98.99
69624;BME280;56843;52.020;5.670;2022-10-22T02:10:13;100728.03;;;10.52;98.79
69624;BME280;56843;52.020;5.670;2022-10-22T02:11:44;100731.81;;;10.51;99.00
69624;BME280;56843;52.020;5.670;2022-10-22T02:13:19;100731.81;;;10.51;98.82
69624;BME280;56843;52.020;5.670;2022-10-22T02:14:51;100728.38;;;10.51;98.83
69624;BME280;56843;52.020;5.670;2022-10-22T02:16:27;100723.34;;;10.49;98.81
69624;BME280;56843;52.020;5.670;2022-10-22T02:17:59;100732.78;;;10.47;98.62
69624;BME280;56843;52.020;5.670;2022-10-22T02:21:25;100729.31;;;10.46;98.80
69624;BME280;56843;52.020;5.670;2022-10-22T02:22:57;100724.31;;;10.45;99.02
69624;BME280;56843;52.020;5.670;2022-10-22T02:24:28;100723.84;;;10.43;98.64
69624;BME280;56843;52.020;5.670;2022-10-22T02:26:51;100714.59;;;10.40;98.84
69624;BME280;56843;52.020;5.670;2022-10-22T02:28:25;100716.34;;;10.36;98.70
69624;BME280;56843;52.020;5.670;2022-10-22T02:30:05;100722.00;;;10.34;98.69
69624;BME280;56843;52.020;5.670;2022-10-22T02:31:39;100712.91;;;10.36;99.05
69624;BME280;56843;52.020;5.670;2022-10-22T02:33:15;100723.25;;;10.37;99.21
69624;BME280;56843;52.020;5.670;2022-10-22T02:34:48;100719.16;;;10.40;99.19
69624;BME280;56843;52.020;5.670;2022-10-22T02:36:21;100721.97;;;10.43;99.15
69624;BME280;56843;52.020;5.670;2022-10-22T02:37:54;100713.94;;;10.43;99.13
69624;BME280;56843;52.020;5.670;2022-10-22T02:39:26;100719.28;;;10.43;99.44
69624;BME280;56843;52.020;5.670;2022-10-22T02:40:57;100712.06;;;10.44;99.27
69624;BME280;56843;52.020;5.670;2022-10-22T02:42:28;100721.31;;;10.46;99.08
69624;BME280;56843;52.020;5.670;2022-10-22T02:43:59;100715.97;;;10.46;99.44
69624;BME280;56843;52.020;5.670;2022-10-22T02:45:32;100714.84;;;10.47;99.25
69624;BME280;56843;52.020;5.670;2022-10-22T02:47:04;100712.97;;;10.48;99.16
69624;BME280;56843;52.020;5.670;2022-10-22T02:48:34;100711.56;;;10.50;99.37
69624;BME280;56843;52.020;5.670;2022-10-22T02:50:06;100716.09;;;10.50;99.04
69624;BME280;56843;52.020;5.670;2022-10-22T02:51:36;100716.56;;;10.52;99.35
69624;BME280;56843;52.020;5.670;2022-10-22T02:53:07;100714.34;;;10.54;99.62
69624;BME280;56843;52.020;5.670;2022-10-22T02:54:37;100714.50;;;10.57;99.45
69624;BME280;56843;52.020;5.670;2022-10-22T02:56:08;100712.28;;;10.59;99.34
69624;BME280;56843;52.020;5.670;2022-10-22T02:57:39;100717.28;;;10.61;99.55
69624;BME280;56843;52.020;5.670;2022-10-22T02:59:09;100714.63;;;10.61;99.40
69624;BME280;56843;52.020;5.670;2022-10-22T03:00:40;100711.16;;;10.60;99.29
69624;BME280;56843;52.020;5.670;2022-10-22T03:02:11;100706.75;;;10.64;99.46
69624;BME280;56843;52.020;5.670;2022-10-22T03:03:41;100717.44;;;10.64;99.43
69624;BME280;56843;52.020;5.670;2022-10-22T03:05:12;100719.66;;;10.62;99.60
69624;BME280;56843;52.020;5.670;2022-10-22T03:06:43;100720.88;;;10.65;99.15
69624;BME280;56843;52.020;5.670;2022-10-22T03:08:14;100722.78;;;10.64;99.25
69624;BME280;56843;52.020;5.670;2022-10-22T03:09:44;100722.13;;;10.67;99.29
69624;BME280;56843;52.020;5.670;2022-10-22T03:11:15;100724.47;;;10.69;99.29
69624;BME280;56843;52.020;5.670;2022-10-22T03:12:46;100725.25;;;10.69;99.54
69624;BME280;56843;52.020;5.670;2022-10-22T03:14:17;100714.09;;;10.67;99.56
69624;BME280;56843;52.020;5.670;2022-10-22T03:15:49;100721.34;;;10.67;99.14
69624;BME280;56843;52.020;5.670;2022-10-22T03:17:19;100732.81;;;10.67;99.22
69624;BME280;56843;52.020;5.670;2022-10-22T03:18:50;100720.22;;;10.68;99.52
69624;BME280;56843;52.020;5.670;2022-10-22T03:20:20;100717.22;;;10.69;99.14
69624;BME280;56843;52.020;5.670;2022-10-22T03:23:27;100720.56;;;10.66;99.15
69624;BME280;56843;52.020;5.670;2022-10-22T03:25:02;100730.78;;;10.64;99.36
69624;BME280;56843;52.020;5.670;2022-10-22T03:26:38;100725.75;;;10.63;99.18
69624;BME280;56843;52.020;5.670;2022-10-22T03:28:12;100729.56;;;10.62;99.17
69624;BME280;56843;52.020;5.670;2022-10-22T03:29:45;100721.84;;;10.60;99.37
69624;BME280;56843;52.020;5.670;2022-10-22T03:31:16;100730.97;;;10.59;99.04
69624;BME280;56843;52.020;5.670;2022-10-22T03:32:46;100738.66;;;10.61;99.40
69624;BME280;56843;52.020;5.670;2022-10-22T03:34:17;100730.66;;;10.61;99.29
69624;BME280;56843;52.020;5.670;2022-10-22T03:35:47;100736.31;;;10.59;99.47
69624;BME280;56843;52.020;5.670;2022-10-22T03:37:18;100743.53;;;10.59;99.46
69624;BME280;56843;52.020;5.670;2022-10-22T03:38:49;100735.06;;;10.57;99.50
69624;BME280;56843;52.020;5.670;2022-10-22T03:40:19;100742.63;;;10.55;99.42
69624;BME280;56843;52.020;5.670;2022-10-22T03:41:51;100737.28;;;10.55;99.13
69624;BME280;56843;52.020;5.670;2022-10-22T03:43:22;100746.38;;;10.54;99.39
69624;BME280;56843;52.020;5.670;2022-10-22T03:44:52;100744.50;;;10.54;99.47
69624;BME280;56843;52.020;5.670;2022-10-22T03:46:23;100751.72;;;10.54;99.40
69624;BME280;56843;52.020;5.670;2022-10-22T03:47:54;100748.31;;;10.53;99.14
69624;BME280;56843;52.020;5.670;2022-10-22T03:49:24;100746.88;;;10.56;99.59
69624;BME280;56843;52.020;5.670;2022-10-22T03:50:55;100754.22;;;10.59;99.78
69624;BME280;56843;52.020;5.670;2022-10-22T03:52:25;100748.88;;;10.59;99.42
69624;BME280;56843;52.020;5.670;2022-10-22T03:53:55;100758.00;;;10.58;99.61
69624;BME280;56843;52.020;5.670;2022-10-22T03:55:26;100747.19;;;10.54;99.51
69624;BME280;56843;52.020;5.670;2022-10-22T03:56:57;100753.63;;;10.53;99.15
69624;BME280;56843;52.020;5.670;2022-10-22T03:58:27;100752.84;;;10.53;99.11
69624;BME280;56843;52.020;5.670;2022-10-22T03:59:58;100758.53;;;10.51;99.51
69624;BME280;56843;52.020;5.670;2022-10-22T04:01:29;100747.06;;;10.51;99.36
69624;BME280;56843;52.020;5.670;2022-10-22T04:03:00;100751.59;;;10.50;99.48
69624;BME280;56843;52.020;5.670;2022-10-22T04:04:30;100755.41;;;10.49;99.59
69624;BME280;56843;52.020;5.670;2022-10-22T04:06:06;100754.59;;;10.49;99.63
69624;BME280;56843;52.020;5.670;2022-10-22T04:07:37;100755.69;;;10.48;99.49
69624;BME280;56843;52.020;5.670;2022-10-22T04:09:07;100761.03;;;10.48;99.28
69624;BME280;56843;52.020;5.670;2022-10-22T04:10:38;100767.50;;;10.47;99.50
69624;BME280;56843;52.020;5.670;2022-10-22T04:12:08;100764.03;;;10.46;99.30
69624;BME280;56843;52.020;5.670;2022-10-22T04:13:39;100768.13;;;10.44;99.18
69624;BME280;56843;52.020;5.670;2022-10-22T04:15:10;100765.78;;;10.42;99.35
69624;BME280;56843;52.020;5.670;2022-10-22T04:16:40;100762.34;;;10.42;99.28
69624;BME280;56843;52.020;5.670;2022-10-22T04:18:11;100759.34;;;10.43;99.42
69624;BME280;56843;52.020;5.670;2022-10-22T04:19:41;100763.13;;;10.42;99.41
69624;BME280;56843;52.020;5.670;2022-10-22T04:21:14;100766.09;;;10.41;99.30
69624;BME280;56843;52.020;5.670;2022-10-22T04:22:45;100766.41;;;10.39;99.37
69624;BME280;56843;52.020;5.670;2022-10-22T04:24:15;100765.63;;;10.39;99.75
69624;BME280;56843;52.020;5.670;2022-10-22T04:25:46;100760.28;;;10.39;99.63
69624;BME280;56843;52.020;5.670;2022-10-22T04:27:16;100761.41;;;10.38;99.65
69624;BME280;56843;52.020;5.670;2022-10-22T04:28:48;100766.28;;;10.36;99.39
69624;BME280;56843;52.020;5.670;2022-10-22T04:30:19;100769.25;;;10.34;99.44
69624;BME280;56843;52.020;5.670;2022-10-22T04:31:49;100765.84;;;10.33;99.73
69624;BME280;56843;52.020;5.670;2022-10-22T04:33:20;100758.59;;;10.34;99.54
69624;BME280;56843;52.020;5.670;2022-10-22T04:34:51;100754.81;;;10.35;99.47
69624;BME280;56843;52.020;5.670;2022-10-22T04:36:22;100759.38;;;10.34;99.51
69624;BME280;56843;52.020;5.670;2022-10-22T04:37:53;100764.25;;;10.32;99.31
69624;BME280;56843;52.020;5.670;2022-10-22T04:39:24;100755.91;;;10.34;99.90
69624;BME280;56843;52.020;5.670;2022-10-22T04:40:55;100759.72;;;10.33;99.69
69624;BME280;56843;52.020;5.670;2022-10-22T04:42:25;100762.38;;;10.33;99.79
69624;BME280;56843;52.020;5.670;2022-10-22T04:43:56;100766.94;;;10.32;99.68
69624;BME280;56843;52.020;5.670;2022-10-22T04:45:27;100763.94;;;10.34;99.76
69624;BME280;56843;52.020;5.670;2022-10-22T04:46:58;100762.84;;;10.35;99.90
69624;BME280;56843;52.020;5.670;2022-10-22T04:48:28;100760.50;;;10.33;99.44
69624;BME280;56843;52.020;5.670;2022-10-22T04:49:59;100770.69;;;10.31;99.69
69624;BME280;56843;52.020;5.670;2022-10-22T04:51:30;100765.69;;;10.30;99.70
69624;BME280;56843;52.020;5.670;2022-10-22T04:53:00;100766.00;;;10.28;99.63
69624;BME280;56843;52.020;5.670;2022-10-22T04:54:31;100764.44;;;10.27;99.69
69624;BME280;56843;52.020;5.670;2022-10-22T04:56:16;100776.22;;;10.26;99.71
69624;BME280;56843;52.020;5.670;2022-10-22T04:57:49;100777.19;;;10.22;99.55
69624;BME280;56843;52.020;5.670;2022-10-22T04:59:20;100779.41;;;10.20;99.51
69624;BME280;56843;52.020;5.670;2022-10-22T05:00:50;100787.41;;;10.20;99.48
69624;BME280;56843;52.020;5.670;2022-10-22T05:02:21;100781.28;;;10.19;99.49
69624;BME280;56843;52.020;5.670;2022-10-22T05:03:53;100780.94;;;10.21;99.54
69624;BME280;56843;52.020;5.670;2022-10-22T05:05:24;100790.06;;;10.20;99.76
69624;BME280;56843;52.020;5.670;2022-10-22T05:06:54;100788.50;;;10.19;100.00
69624;BME280;56843;52.020;5.670;2022-10-22T05:08:25;100783.94;;;10.19;99.50
69624;BME280;56843;52.020;5.670;2022-10-22T05:09:55;100782.34;;;10.18;99.42
69624;BME280;56843;52.020;5.670;2022-10-22T05:11:28;100788.50;;;10.19;99.94
69624;BME280;56843;52.020;5.670;2022-10-22T05:12:59;100781.59;;;10.18;99.57
69624;BME280;56843;52.020;5.670;2022-10-22T05:14:30;100784.25;;;10.18;99.46
69624;BME280;56843;52.020;5.670;2022-10-22T05:16:00;100783.47;;;10.17;99.62
69624;BME280;56843;52.020;5.670;2022-10-22T05:17:34;100787.41;;;10.20;99.92
69624;BME280;56843;52.020;5.670;2022-10-22T05:19:05;100782.81;;;10.20;99.59
69624;BME280;56843;52.020;5.670;2022-10-22T05:20:39;100784.41;;;10.21;99.85
69624;BME280;56843;52.020;5.670;2022-10-22T05:22:10;100782.34;;;10.18;100.00
69624;BME280;56843;52.020;5.670;2022-10-22T05:23:41;100797.13;;;10.16;99.57
69624;BME280;56843;52.020;5.670;2022-10-22T05:25:12;100789.41;;;10.14;99.87
69624;BME280;56843;52.020;5.670;2022-10-22T05:26:42;100795.53;;;10.15;99.73
69624;BME280;56843;52.020;5.670;2022-10-22T05:28:13;100785.94;;;10.14;99.77
69624;BME280;56843;52.020;5.670;2022-10-22T05:29:43;100782.53;;;10.13;99.87
69624;BME280;56843;52.020;5.670;2022-10-22T05:31:14;100788.94;;;10.12;99.58
69624;BME280;56843;52.020;5.670;2022-10-22T05:32:45;100792.25;;;10.09;99.74
69624;BME280;56843;52.020;5.670;2022-10-22T05:34:16;100788.50;;;10.10;99.52
69624;BME280;56843;52.020;5.670;2022-10-22T05:35:50;100794.28;;;10.12;99.48
69624;BME280;56843;52.020;5.670;2022-10-22T05:37:20;100799.94;;;10.11;100.00
69624;BME280;56843;52.020;5.670;2022-10-22T05:38:51;100797.59;;;10.09;99.64
69624;BME280;56843;52.020;5.670;2022-10-22T05:40:21;100803.25;;;10.08;99.94
69624;BME280;56843;52.020;5.670;2022-10-22T05:41:52;100799.16;;;10.10;99.97
69624;BME280;56843;52.020;5.670;2022-10-22T05:43:23;100798.84;;;10.12;99.84
69624;BME280;56843;52.020;5.670;2022-10-22T05:44:53;100803.41;;;10.11;99.97
69624;BME280;56843;52.020;5.670;2022-10-22T05:46:26;100791.94;;;10.11;99.97
69624;BME280;56843;52.020;5.670;2022-10-22T05:47:56;100796.16;;;10.12;100.00
69624;BME280;56843;52.020;5.670;2022-10-22T05:49:27;100799.63;;;10.12;99.92
69624;BME280;56843;52.020;5.670;2022-10-22T05:51:04;100802.63;;;10.11;100.00
69624;BME280;56843;52.020;5.670;2022-10-22T05:52:35;100808.59;;;10.08;100.00
69624;BME280;56843;52.020;5.670;2022-10-22T05:54:07;100807.50;;;10.09;99.89
69624;BME280;56843;52.020;5.670;2022-10-22T05:55:37;100806.38;;;10.10;100.00
69624;BME280;56843;52.020;5.670;2022-10-22T05:57:10;100810.63;;;10.11;99.90
69624;BME280;56843;52.020;5.670;2022-10-22T05:58:41;100805.28;;;10.11;99.97
69624;BME280;56843;52.020;5.670;2022-10-22T06:00:12;100806.72;;;10.08;99.64
69624;BME280;56843;52.020;5.670;2022-10-22T06:01:43;100812.84;;;10.09;99.75
69624;BME280;56843;52.020;5.670;2022-10-22T06:03:13;100812.50;;;10.10;100.00
69624;BME280;56843;52.020;5.670;2022-10-22T06:04:44;100810.63;;;10.11;99.98
69624;BME280;56843;52.020;5.670;2022-10-22T06:06:21;100815.31;;;10.14;100.00
69624;BME280;56843;52.020;5.670;2022-10-22T06:07:53;100821.31;;;10.19;100.00
69624;BME280;56843;52.020;5.670;2022-10-22T06:09:29;100820.03;;;10.25;99.90
69624;BME280;56843;52.020;5.670;2022-10-22T06:11:00;100821.41;;;10.31;100.00
69624;BME280;56843;52.020;5.670;2022-10-22T06:12:30;100828.94;;;10.38;100.00
69624;BME280;56843;52.020;5.670;2022-10-22T06:14:02;100829.88;;;10.42;100.00
69624;BME280;56843;52.020;5.670;2022-10-22T06:15:33;100828.91;;;10.47;100.00
69624;BME280;56843;52.020;5.670;2022-10-22T06:17:04;100827.16;;;10.51;100.00
69624;BME280;56843;52.020;5.670;2022-10-22T06:18:35;100835.28;;;10.54;100.00
69624;BME280;56843;52.020;5.670;2022-10-22T06:20:06;100837.34;;;10.57;100.00
69624;BME280;56843;52.020;5.670;2022-10-22T06:21:37;100834.78;;;10.61;100.00
69624;BME280;56843;52.020;5.670;2022-10-22T06:23:07;100841.06;;;10.65;100.00
69624;BME280;56843;52.020;5.670;2022-10-22T06:24:38;100837.75;;;10.68;100.00
69624;BME280;56843;52.020;5.670;2022-10-22T06:26:09;100840.88;;;10.70;100.00
69624;BME280;56843;52.020;5.670;2022-10-22T06:27:40;100847.81;;;10.71;100.00
69624;BME280;56843;52.020;5.670;2022-10-22T06:29:11;100845.91;;;10.71;100.00
69624;BME280;56843;52.020;5.670;2022-10-22T06:30:41;100847.81;;;10.71;99.97
69624;BME280;56843;52.020;5.670;2022-10-22T06:32:12;100847.94;;;10.74;100.00
69624;BME280;56843;52.020;5.670;2022-10-22T06:33:43;100854.84;;;10.75;100.00
69624;BME280;56843;52.020;5.670;2022-10-22T06:35:13;100855.31;;;10.77;100.00
69624;BME280;56843;52.020;5.670;2022-10-22T06:36:45;100854.66;;;10.80;99.92
69624;BME280;56843;52.020;5.670;2022-10-22T06:38:15;100862.03;;;10.83;100.00
69624;BME280;56843;52.020;5.670;2022-10-22T06:39:46;100867.50;;;10.87;100.00
69624;BME280;56843;52.020;5.670;2022-10-22T06:41:17;100865.78;;;10.91;100.00
69624;BME280;56843;52.020;5.670;2022-10-22T06:42:47;100860.56;;;10.94;99.97
69624;BME280;56843;52.020;5.670;2022-10-22T06:44:18;100865.72;;;10.99;100.00
69624;BME280;56843;52.020;5.670;2022-10-22T06:45:49;100865.50;;;11.04;99.97
69624;BME280;56843;52.020;5.670;2022-10-22T06:47:19;100873.34;;;11.09;100.00
69624;BME280;56843;52.020;5.670;2022-10-22T06:48:55;100876.94;;;11.14;100.00
69624;BME280;56843;52.020;5.670;2022-10-22T06:50:26;100878.19;;;11.16;99.75
69624;BME280;56843;52.020;5.670;2022-10-22T06:51:57;100876.75;;;11.19;99.90
69624;BME280;56843;52.020;5.670;2022-10-22T06:53:28;100879.25;;;11.24;99.57
69624;BME280;56843;52.020;5.670;2022-10-22T06:54:58;100881.25;;;11.27;99.82
69624;BME280;56843;52.020;5.670;2022-10-22T06:56:29;100888.31;;;11.31;100.00
69624;BME280;56843;52.020;5.670;2022-10-22T06:57:59;100887.66;;;11.34;99.84
69624;BME280;56843;52.020;5.670;2022-10-22T06:59:30;100885.44;;;11.36;99.93
69624;BME280;56843;52.020;5.670;2022-10-22T07:01:02;100887.94;;;11.41;99.97
69624;BME280;56843;52.020;5.670;2022-10-22T07:02:33;100899.53;;;11.45;99.56
69624;BME280;56843;52.020;5.670;2022-10-22T07:04:04;100897.94;;;11.53;99.77
69624;BME280;56843;52.020;5.670;2022-10-22T07:05:35;100903.88;;;11.58;99.76
69624;BME280;56843;52.020;5.670;2022-10-22T07:07:06;100904.50;;;11.64;99.80
69624;BME280;56843;52.020;5.670;2022-10-22T07:08:37;100911.84;;;11.67;99.78
69624;BME280;56843;52.020;5.670;2022-10-22T07:10:08;100899.38;;;11.71;99.32
69624;BME280;56843;52.020;5.670;2022-10-22T07:11:44;100903.75;;;11.75;99.41
69624;BME280;56843;52.020;5.670;2022-10-22T07:13:14;100906.22;;;11.80;99.29
69624;BME280;56843;52.020;5.670;2022-10-22T07:14:45;100910.25;;;11.87;99.53
69624;BME280;56843;52.020;5.670;2022-10-22T07:16:16;100918.09;;;11.92;99.47
69624;BME280;56843;52.020;5.670;2022-10-22T07:17:47;100918.25;;;11.95;99.31
69624;BME280;56843;52.020;5.670;2022-10-22T07:19:18;100921.47;;;12.01;99.24
69624;BME280;56843;52.020;5.670;2022-10-22T07:20:48;100920.50;;;12.05;98.80
69624;BME280;56843;52.020;5.670;2022-10-22T07:22:19;100920.63;;;12.09;98.38
69624;BME280;56843;52.020;5.670;2022-10-22T07:23:49;100928.78;;;12.12;98.83
69624;BME280;56843;52.020;5.670;2022-10-22T07:25:20;100919.75;;;12.17;98.84
69624;BME280;56843;52.020;5.670;2022-10-22T07:26:50;100927.91;;;12.20;98.89
69624;BME280;56843;52.020;5.670;2022-10-22T07:28:21;100924.25;;;12.25;98.53
69624;BME280;56843;52.020;5.670;2022-10-22T07:29:51;100927.03;;;12.28;98.99
69624;BME280;56843;52.020;5.670;2022-10-22T07:31:22;100929.50;;;12.33;98.51
69624;BME280;56843;52.020;5.670;2022-10-22T07:32:52;100932.78;;;12.39;98.81
69624;BME280;56843;52.020;5.670;2022-10-22T07:34:23;100936.00;;;12.44;98.61
69624;BME280;56843;52.020;5.670;2022-10-22T07:35:57;100940.38;;;12.49;98.48
69624;BME280;56843;52.020;5.670;2022-10-22T07:37:29;100938.28;;;12.54;98.44
69624;BME280;56843;52.020;5.670;2022-10-22T07:38:59;100938.06;;;12.60;98.09
69624;BME280;56843;52.020;5.670;2022-10-22T07:40:30;100941.31;;;12.65;98.55
69624;BME280;56843;52.020;5.670;2022-10-22T07:42:01;100941.09;;;12.70;98.23
69624;BME280;56843;52.020;5.670;2022-10-22T07:43:31;100942.44;;;12.76;98.15
69624;BME280;56843;52.020;5.670;2022-10-22T07:45:02;100953.44;;;12.83;98.25
69624;BME280;56843;52.020;5.670;2022-10-22T07:46:33;100943.06;;;12.94;98.03
69624;BME280;56843;52.020;5.670;2022-10-22T07:48:04;100945.41;;;13.07;98.09
69624;BME280;56843;52.020;5.670;2022-10-22T07:49:35;100953.13;;;13.21;97.99
69624;BME280;56843;52.020;5.670;2022-10-22T07:51:06;100953.53;;;13.35;98.02
69624;BME280;56843;52.020;5.670;2022-10-22T07:52:37;100960.25;;;13.41;97.51
69624;BME280;56843;52.020;5.670;2022-10-22T07:54:07;100950.84;;;13.47;97.14
69624;BME280;56843;52.020;5.670;2022-10-22T07:55:38;100959.44;;;13.53;97.31
69624;BME280;56843;52.020;5.670;2022-10-22T07:57:08;100947.38;;;13.59;96.89
69624;BME280;56843;52.020;5.670;2022-10-22T07:58:39;100954.41;;;13.63;96.78
69624;BME280;56843;52.020;5.670;2022-10-22T08:00:11;100959.09;;;13.66;96.44
69624;BME280;56843;52.020;5.670;2022-10-22T08:01:44;100963.44;;;13.71;96.43
69624;BME280;56843;52.020;5.670;2022-10-22T08:03:16;100957.41;;;13.74;96.34
69624;BME280;56843;52.020;5.670;2022-10-22T08:04:47;100966.25;;;13.74;96.08
69624;BME280;56843;52.020;5.670;2022-10-22T08:06:18;100964.31;;;13.75;96.13
69624;BME280;56843;52.020;5.670;2022-10-22T08:07:48;100966.69;;;13.76;95.93
69624;BME280;56843;52.020;5.670;2022-10-22T08:09:19;100973.59;;;13.77;95.99
69624;BME280;56843;52.020;5.670;2022-10-22T08:10:51;100975.19;;;13.78;96.06
69624;BME280;56843;52.020;5.670;2022-10-22T08:12:22;100979.41;;;13.79;96.12
69624;BME280;56843;52.020;5.670;2022-10-22T08:13:52;100979.84;;;13.81;96.01
69624;BME280;56843;52.020;5.670;2022-10-22T08:15:26;100979.84;;;13.81;96.13
69624;BME280;56843;52.020;5.670;2022-10-22T08:17:00;100982.22;;;13.83;95.80
69624;BME280;56843;52.020;5.670;2022-10-22T08:18:31;100980.06;;;13.88;96.25
69624;BME280;56843;52.020;5.670;2022-10-22T08:20:05;100988.69;;;13.94;96.05
69624;BME280;56843;52.020;5.670;2022-10-22T08:21:36;100987.69;;;13.98;95.90
69624;BME280;56843;52.020;5.670;2022-10-22T08:23:06;100994.47;;;14.08;95.66
69624;BME280;56843;52.020;5.670;2022-10-22T08:24:37;100990.16;;;14.19;95.84
69624;BME280;56843;52.020;5.670;2022-10-22T08:26:13;100988.47;;;14.27;95.33
69624;BME280;56843;52.020;5.670;2022-10-22T08:27:44;100990.75;;;14.40;95.15